CFG2TJ EDDF-LEIB
Flight info
| Callsign | CFG2TJ |
|---|---|
| Flight time | 2h 3m |
| Altitude | 33000 |
| Route | ANEKI2L/18 ANEKI Y163 HERBI Y164 MOPAN DCT LUTIX DCT BENOT DCT NEMOS DCT GEVEA DCT INCUS/N0461F350 DCT BALSI DCT RETNO DCT TUPOX DCT MTG DCT DIVKO DCT VATIR DCT PIVUS DCT SULID DCT DIMIB DCT POS |
| Aircraft | A321/M-SDE3FGHIRWY/LB1 |
Departure
| Time | 2026-05-05 11:16 |
|---|---|
| Airport | Frankfurt Main Airport (EDDF) |
Arrival
| Time | 2026-05-05 13:19 |
|---|---|
| Airport | Ibiza Airport (LEIB) |
| Time | Latitude | Longitude | Altitude | Speed | Heading |
|---|---|---|---|---|---|
| 2026-05-05 10:26 | 50.04883 | 8.57441 | 356 ft | 0 kts | 217° |
| 2026-05-05 11:05 | 50.04901 | 8.57463 | 365 ft | 4 kts | 217° |
| 2026-05-05 11:05 | 50.04923 | 8.57486 | 363 ft | 4 kts | 204° |
| 2026-05-05 11:05 | 50.04943 | 8.57493 | 362 ft | 4 kts | 133° |
| 2026-05-05 11:05 | 50.04943 | 8.57500 | 363 ft | 4 kts | 115° |
| 2026-05-05 11:06 | 50.04931 | 8.57538 | 365 ft | 4 kts | 114° |
| 2026-05-05 11:06 | 50.04920 | 8.57576 | 362 ft | 4 kts | 114° |
| 2026-05-05 11:06 | 50.04910 | 8.57615 | 361 ft | 4 kts | 114° |
| 2026-05-05 11:06 | 50.04907 | 8.57624 | 359 ft | 0 kts | 114° |
| 2026-05-05 11:08 | 50.04905 | 8.57632 | 358 ft | 4 kts | 114° |
| 2026-05-05 11:09 | 50.04876 | 8.57732 | 362 ft | 16 kts | 113° |
| 2026-05-05 11:09 | 50.04828 | 8.57880 | 361 ft | 15 kts | 136° |
| 2026-05-05 11:09 | 50.04740 | 8.57922 | 358 ft | 13 kts | 191° |
| 2026-05-05 11:09 | 50.04677 | 8.57771 | 361 ft | 22 kts | 249° |
| 2026-05-05 11:10 | 50.04616 | 8.57514 | 358 ft | 27 kts | 250° |
| 2026-05-05 11:10 | 50.04551 | 8.57243 | 362 ft | 26 kts | 249° |
| 2026-05-05 11:10 | 50.04490 | 8.56988 | 359 ft | 25 kts | 250° |
| 2026-05-05 11:10 | 50.04433 | 8.56748 | 363 ft | 25 kts | 249° |
| 2026-05-05 11:11 | 50.04371 | 8.56491 | 360 ft | 25 kts | 250° |
| 2026-05-05 11:11 | 50.04313 | 8.56246 | 357 ft | 24 kts | 249° |
| 2026-05-05 11:11 | 50.04253 | 8.55998 | 362 ft | 27 kts | 249° |
| 2026-05-05 11:11 | 50.04180 | 8.55689 | 359 ft | 32 kts | 250° |
| 2026-05-05 11:12 | 50.04103 | 8.55370 | 357 ft | 31 kts | 249° |
| 2026-05-05 11:12 | 50.04031 | 8.55068 | 358 ft | 29 kts | 249° |
| 2026-05-05 11:12 | 50.03961 | 8.54776 | 353 ft | 29 kts | 249° |
| 2026-05-05 11:12 | 50.03891 | 8.54483 | 356 ft | 29 kts | 249° |
| 2026-05-05 11:13 | 50.03798 | 8.54212 | 356 ft | 28 kts | 246° |
| 2026-05-05 11:13 | 50.03730 | 8.53929 | 346 ft | 28 kts | 249° |
| 2026-05-05 11:13 | 50.03663 | 8.53652 | 348 ft | 27 kts | 249° |
| 2026-05-05 11:13 | 50.03592 | 8.53365 | 336 ft | 31 kts | 250° |
| 2026-05-05 11:14 | 50.03511 | 8.53032 | 335 ft | 33 kts | 249° |
| 2026-05-05 11:14 | 50.03442 | 8.52765 | 334 ft | 21 kts | 248° |
| 2026-05-05 11:14 | 50.03392 | 8.52605 | 333 ft | 14 kts | 212° |
| 2026-05-05 11:14 | 50.03259 | 8.52594 | 332 ft | 37 kts | 180° |
| 2026-05-05 11:15 | 50.02763 | 8.52599 | 334 ft | 102 kts | 179° |
| 2026-05-05 11:15 | 50.01869 | 8.52609 | 335 ft | 152 kts | 180° |
| 2026-05-05 11:15 | 50.00672 | 8.52623 | 356 ft | 189 kts | 179° |
| 2026-05-05 11:15 | 49.99369 | 8.52653 | 957 ft | 186 kts | 178° |
| 2026-05-05 11:16 | 49.98077 | 8.52738 | 1609 ft | 186 kts | 177° |
| 2026-05-05 11:16 | 49.96786 | 8.52836 | 2173 ft | 188 kts | 177° |
| 2026-05-05 11:16 | 49.95416 | 8.52940 | 2365 ft | 207 kts | 177° |
| 2026-05-05 11:16 | 49.93911 | 8.53055 | 2527 ft | 225 kts | 177° |
| 2026-05-05 11:17 | 49.92341 | 8.53173 | 3020 ft | 230 kts | 177° |
| 2026-05-05 11:17 | 49.90717 | 8.53290 | 3627 ft | 231 kts | 178° |
| 2026-05-05 11:17 | 49.89120 | 8.53405 | 4298 ft | 230 kts | 178° |
| 2026-05-05 11:17 | 49.87538 | 8.53512 | 4883 ft | 231 kts | 178° |
| 2026-05-05 11:18 | 49.85931 | 8.53621 | 5470 ft | 232 kts | 178° |
| 2026-05-05 11:18 | 49.84316 | 8.53732 | 6057 ft | 233 kts | 178° |
| 2026-05-05 11:18 | 49.82695 | 8.53845 | 6608 ft | 234 kts | 178° |
| 2026-05-05 11:18 | 49.81062 | 8.53955 | 7141 ft | 236 kts | 178° |
| 2026-05-05 11:19 | 49.79410 | 8.54065 | 7680 ft | 240 kts | 178° |
| 2026-05-05 11:19 | 49.77734 | 8.54099 | 8307 ft | 243 kts | 184° |
| 2026-05-05 11:19 | 49.75971 | 8.53874 | 8535 ft | 266 kts | 185° |
| 2026-05-05 11:19 | 49.74086 | 8.53624 | 8984 ft | 276 kts | 185° |
| 2026-05-05 11:20 | 49.72153 | 8.53366 | 9627 ft | 280 kts | 185° |
| 2026-05-05 11:20 | 49.70189 | 8.53104 | 10145 ft | 289 kts | 185° |
| 2026-05-05 11:20 | 49.68107 | 8.52827 | 10268 ft | 311 kts | 185° |
| 2026-05-05 11:20 | 49.65881 | 8.52530 | 10398 ft | 332 kts | 185° |
| 2026-05-05 11:21 | 49.63513 | 8.52214 | 10521 ft | 351 kts | 185° |
| 2026-05-05 11:21 | 49.61017 | 8.51882 | 10645 ft | 369 kts | 185° |
| 2026-05-05 11:21 | 49.58402 | 8.51533 | 10810 ft | 384 kts | 185° |
| 2026-05-05 11:21 | 49.55723 | 8.51177 | 11225 ft | 389 kts | 185° |
| 2026-05-05 11:22 | 49.53010 | 8.50819 | 11739 ft | 392 kts | 185° |
| 2026-05-05 11:22 | 49.50281 | 8.50461 | 12266 ft | 395 kts | 185° |
| 2026-05-05 11:22 | 49.47532 | 8.50105 | 12786 ft | 397 kts | 185° |
| 2026-05-05 11:22 | 49.44769 | 8.49747 | 13300 ft | 400 kts | 185° |
| 2026-05-05 11:23 | 49.42021 | 8.49390 | 13794 ft | 402 kts | 185° |
| 2026-05-05 11:23 | 49.39193 | 8.49018 | 14286 ft | 404 kts | 185° |
| 2026-05-05 11:23 | 49.36389 | 8.48649 | 14746 ft | 406 kts | 185° |
| 2026-05-05 11:23 | 49.33568 | 8.48279 | 15199 ft | 408 kts | 185° |
| 2026-05-05 11:24 | 49.30773 | 8.47914 | 15638 ft | 410 kts | 185° |
| 2026-05-05 11:24 | 49.27884 | 8.47539 | 16084 ft | 412 kts | 185° |
| 2026-05-05 11:24 | 49.25017 | 8.47169 | 16529 ft | 415 kts | 185° |
| 2026-05-05 11:24 | 49.22175 | 8.46801 | 16965 ft | 417 kts | 185° |
| 2026-05-05 11:25 | 49.19279 | 8.46424 | 17421 ft | 419 kts | 185° |
| 2026-05-05 11:25 | 49.16361 | 8.46047 | 17887 ft | 421 kts | 185° |
| 2026-05-05 11:25 | 49.13435 | 8.45668 | 18295 ft | 423 kts | 185° |
| 2026-05-05 11:25 | 49.10491 | 8.45288 | 18663 ft | 425 kts | 185° |
| 2026-05-05 11:26 | 49.07532 | 8.44904 | 19026 ft | 427 kts | 185° |
| 2026-05-05 11:26 | 49.04599 | 8.44153 | 19376 ft | 430 kts | 193° |
| 2026-05-05 11:26 | 49.01676 | 8.43125 | 19737 ft | 432 kts | 193° |
| 2026-05-05 11:26 | 48.98744 | 8.42096 | 20094 ft | 434 kts | 192° |
| 2026-05-05 11:27 | 48.95794 | 8.41066 | 20470 ft | 435 kts | 192° |
| 2026-05-05 11:27 | 48.92839 | 8.40039 | 20847 ft | 437 kts | 192° |
| 2026-05-05 11:27 | 48.89864 | 8.39006 | 21200 ft | 439 kts | 192° |
| 2026-05-05 11:27 | 48.86876 | 8.37969 | 21548 ft | 442 kts | 192° |
| 2026-05-05 11:28 | 48.83876 | 8.36930 | 21884 ft | 443 kts | 192° |
| 2026-05-05 11:28 | 48.80859 | 8.35886 | 22212 ft | 445 kts | 192° |
| 2026-05-05 11:28 | 48.77832 | 8.34838 | 22563 ft | 448 kts | 192° |
| 2026-05-05 11:28 | 48.74791 | 8.33759 | 22891 ft | 450 kts | 193° |
| 2026-05-05 11:29 | 48.71741 | 8.32651 | 23222 ft | 452 kts | 193° |
| 2026-05-05 11:29 | 48.68679 | 8.31524 | 23516 ft | 454 kts | 193° |
| 2026-05-05 11:29 | 48.65605 | 8.30386 | 23793 ft | 455 kts | 193° |
| 2026-05-05 11:29 | 48.62531 | 8.29251 | 24165 ft | 454 kts | 193° |
| 2026-05-05 11:30 | 48.59472 | 8.28128 | 24588 ft | 451 kts | 193° |
| 2026-05-05 11:30 | 48.56424 | 8.27015 | 24991 ft | 449 kts | 193° |
| 2026-05-05 11:30 | 48.53393 | 8.25916 | 25395 ft | 447 kts | 193° |
| 2026-05-05 11:30 | 48.50373 | 8.24824 | 25801 ft | 445 kts | 192° |
| 2026-05-05 11:31 | 48.47409 | 8.23755 | 26189 ft | 443 kts | 192° |
| 2026-05-05 11:31 | 48.44418 | 8.22669 | 26602 ft | 441 kts | 193° |
| 2026-05-05 11:31 | 48.41440 | 8.21583 | 27021 ft | 439 kts | 193° |
| 2026-05-05 11:31 | 48.38479 | 8.20499 | 27423 ft | 437 kts | 193° |
| 2026-05-05 11:32 | 48.35528 | 8.19418 | 27831 ft | 435 kts | 192° |
| 2026-05-05 11:32 | 48.32588 | 8.18339 | 28225 ft | 434 kts | 192° |
| 2026-05-05 11:32 | 48.29659 | 8.17268 | 28624 ft | 432 kts | 192° |
| 2026-05-05 11:32 | 48.26742 | 8.16210 | 29025 ft | 431 kts | 192° |
| 2026-05-05 11:33 | 48.23891 | 8.14837 | 29387 ft | 431 kts | 201° |
| 2026-05-05 11:33 | 48.21186 | 8.12901 | 29740 ft | 431 kts | 204° |
| 2026-05-05 11:33 | 48.18508 | 8.10904 | 30083 ft | 429 kts | 204° |
| 2026-05-05 11:33 | 48.15834 | 8.08922 | 30405 ft | 428 kts | 204° |
| 2026-05-05 11:34 | 48.13167 | 8.06952 | 30712 ft | 427 kts | 204° |
| 2026-05-05 11:34 | 48.10508 | 8.04991 | 31007 ft | 427 kts | 204° |
| 2026-05-05 11:34 | 48.07845 | 8.03030 | 31317 ft | 426 kts | 204° |
| 2026-05-05 11:34 | 48.05192 | 8.01081 | 31626 ft | 425 kts | 204° |
| 2026-05-05 11:35 | 48.02543 | 7.99137 | 31976 ft | 423 kts | 204° |
| 2026-05-05 11:35 | 47.99907 | 7.97204 | 32307 ft | 421 kts | 204° |
| 2026-05-05 11:35 | 47.97282 | 7.95278 | 32665 ft | 420 kts | 204° |
| 2026-05-05 11:35 | 47.94660 | 7.93352 | 32861 ft | 419 kts | 204° |
| 2026-05-05 11:36 | 47.92040 | 7.91430 | 32894 ft | 420 kts | 204° |
| 2026-05-05 11:36 | 47.87672 | 7.88237 | 32893 ft | 421 kts | 204° |
| 2026-05-05 11:37 | 47.82409 | 7.84407 | 32891 ft | 421 kts | 204° |
| 2026-05-05 11:37 | 47.77149 | 7.80590 | 32893 ft | 421 kts | 204° |
| 2026-05-05 11:38 | 47.71881 | 7.76764 | 32894 ft | 421 kts | 204° |
| 2026-05-05 11:38 | 47.66619 | 7.72943 | 32888 ft | 421 kts | 204° |
| 2026-05-05 11:39 | 47.61382 | 7.69151 | 32891 ft | 421 kts | 204° |
| 2026-05-05 11:39 | 47.56113 | 7.65357 | 32887 ft | 421 kts | 204° |
| 2026-05-05 11:40 | 47.50842 | 7.61572 | 32886 ft | 421 kts | 204° |
| 2026-05-05 11:40 | 47.45563 | 7.57775 | 32882 ft | 422 kts | 204° |
| 2026-05-05 11:41 | 47.40279 | 7.53983 | 32877 ft | 422 kts | 204° |
| 2026-05-05 11:41 | 47.34994 | 7.50209 | 32877 ft | 422 kts | 204° |
| 2026-05-05 11:42 | 47.29705 | 7.46438 | 32903 ft | 422 kts | 205° |
| 2026-05-05 11:42 | 47.24410 | 7.42666 | 32890 ft | 423 kts | 205° |
| 2026-05-05 11:43 | 47.19119 | 7.38840 | 32888 ft | 424 kts | 208° |
| 2026-05-05 11:43 | 47.14526 | 7.33381 | 32886 ft | 429 kts | 226° |
| 2026-05-05 11:44 | 47.10793 | 7.26525 | 32883 ft | 430 kts | 229° |
| 2026-05-05 11:44 | 47.07062 | 7.19661 | 32885 ft | 430 kts | 229° |
| 2026-05-05 11:45 | 47.03328 | 7.12814 | 32889 ft | 430 kts | 229° |
| 2026-05-05 11:45 | 46.99590 | 7.05966 | 32917 ft | 431 kts | 229° |
| 2026-05-05 11:46 | 46.95843 | 6.99131 | 32918 ft | 430 kts | 229° |
| 2026-05-05 11:46 | 46.92099 | 6.92321 | 32952 ft | 428 kts | 227° |
| 2026-05-05 11:47 | 46.87723 | 6.86510 | 32939 ft | 425 kts | 217° |
| 2026-05-05 11:47 | 46.83138 | 6.81056 | 32929 ft | 425 kts | 218° |
| 2026-05-05 11:48 | 46.76275 | 6.72872 | 32925 ft | 425 kts | 218° |
| 2026-05-05 11:48 | 46.71700 | 6.67449 | 32935 ft | 423 kts | 218° |
| 2026-05-05 11:49 | 46.67166 | 6.62095 | 32934 ft | 421 kts | 218° |
| 2026-05-05 11:49 | 46.62614 | 6.56732 | 32928 ft | 421 kts | 218° |
| 2026-05-05 11:50 | 46.58068 | 6.51371 | 32924 ft | 420 kts | 218° |
| 2026-05-05 11:50 | 46.53534 | 6.46028 | 32961 ft | 420 kts | 218° |
| 2026-05-05 11:51 | 46.48992 | 6.40697 | 32939 ft | 420 kts | 218° |
| 2026-05-05 11:51 | 46.44435 | 6.35375 | 32919 ft | 420 kts | 218° |
| 2026-05-05 11:52 | 46.39880 | 6.30063 | 32932 ft | 420 kts | 218° |
| 2026-05-05 11:52 | 46.35326 | 6.24763 | 32941 ft | 420 kts | 218° |
| 2026-05-05 11:53 | 46.30772 | 6.19468 | 32952 ft | 419 kts | 218° |
| 2026-05-05 11:53 | 46.26073 | 6.14639 | 32958 ft | 417 kts | 207° |
| 2026-05-05 11:54 | 46.20548 | 6.12138 | 32956 ft | 419 kts | 190° |
| 2026-05-05 11:54 | 46.14780 | 6.10879 | 32955 ft | 419 kts | 191° |
| 2026-05-05 11:55 | 46.08988 | 6.09590 | 32940 ft | 418 kts | 191° |
| 2026-05-05 11:55 | 46.03239 | 6.08302 | 32939 ft | 418 kts | 191° |
| 2026-05-05 11:56 | 45.97516 | 6.07027 | 32938 ft | 418 kts | 192° |
| 2026-05-05 11:56 | 45.91775 | 6.05759 | 32942 ft | 417 kts | 191° |
| 2026-05-05 11:57 | 45.86040 | 6.04499 | 32937 ft | 417 kts | 191° |
| 2026-05-05 11:57 | 45.80310 | 6.03236 | 32942 ft | 416 kts | 192° |
| 2026-05-05 11:58 | 45.74586 | 6.01970 | 32945 ft | 416 kts | 192° |
| 2026-05-05 11:58 | 45.68872 | 6.00713 | 32951 ft | 415 kts | 192° |
| 2026-05-05 11:59 | 45.63163 | 5.99462 | 32952 ft | 415 kts | 192° |
| 2026-05-05 11:59 | 45.57462 | 5.98208 | 32948 ft | 414 kts | 193° |
| 2026-05-05 12:00 | 45.51763 | 5.96963 | 32944 ft | 413 kts | 193° |
| 2026-05-05 12:00 | 45.46085 | 5.95673 | 32939 ft | 412 kts | 194° |
| 2026-05-05 12:01 | 45.40524 | 5.93989 | 32931 ft | 410 kts | 197° |
| 2026-05-05 12:01 | 45.34978 | 5.92133 | 32948 ft | 409 kts | 197° |
| 2026-05-05 12:02 | 45.29436 | 5.90343 | 32943 ft | 408 kts | 197° |
| 2026-05-05 12:02 | 45.23897 | 5.88624 | 32937 ft | 407 kts | 197° |
| 2026-05-05 12:03 | 45.18361 | 5.86917 | 32935 ft | 407 kts | 197° |
| 2026-05-05 12:03 | 45.12841 | 5.85208 | 32935 ft | 405 kts | 197° |
| 2026-05-05 12:04 | 45.07333 | 5.83511 | 32929 ft | 405 kts | 197° |
| 2026-05-05 12:04 | 45.01830 | 5.81814 | 32925 ft | 405 kts | 198° |
| 2026-05-05 12:05 | 44.96347 | 5.80120 | 32932 ft | 402 kts | 198° |
| 2026-05-05 12:05 | 44.90897 | 5.78436 | 32934 ft | 400 kts | 198° |
| 2026-05-05 12:06 | 44.85455 | 5.76763 | 32932 ft | 400 kts | 198° |
| 2026-05-05 12:06 | 44.80023 | 5.75109 | 32917 ft | 399 kts | 198° |
| 2026-05-05 12:07 | 44.74601 | 5.73452 | 32922 ft | 398 kts | 198° |
| 2026-05-05 12:07 | 44.69232 | 5.71811 | 32926 ft | 397 kts | 198° |
| 2026-05-05 12:08 | 44.63829 | 5.70170 | 32947 ft | 398 kts | 198° |
| 2026-05-05 12:08 | 44.58412 | 5.68523 | 32931 ft | 398 kts | 198° |
| 2026-05-05 12:09 | 44.52994 | 5.66878 | 32929 ft | 398 kts | 198° |
| 2026-05-05 12:09 | 44.47579 | 5.65234 | 32919 ft | 398 kts | 198° |
| 2026-05-05 12:10 | 44.42167 | 5.63601 | 32914 ft | 398 kts | 198° |
| 2026-05-05 12:10 | 44.36821 | 5.61703 | 32918 ft | 392 kts | 206° |
| 2026-05-05 12:11 | 44.31749 | 5.58901 | 32926 ft | 392 kts | 206° |
| 2026-05-05 12:11 | 44.26665 | 5.56127 | 32898 ft | 391 kts | 206° |
| 2026-05-05 12:12 | 44.21590 | 5.53363 | 32924 ft | 391 kts | 206° |
| 2026-05-05 12:12 | 44.16514 | 5.50597 | 33057 ft | 392 kts | 206° |
| 2026-05-05 12:13 | 44.13981 | 5.49217 | 33384 ft | 391 kts | 206° |
| 2026-05-05 12:13 | 44.11450 | 5.47838 | 33719 ft | 390 kts | 206° |
| 2026-05-05 12:13 | 44.08925 | 5.46462 | 33976 ft | 389 kts | 206° |
| 2026-05-05 12:13 | 44.06404 | 5.45087 | 34191 ft | 390 kts | 206° |
| 2026-05-05 12:14 | 44.03878 | 5.43709 | 34390 ft | 390 kts | 206° |
| 2026-05-05 12:14 | 44.01345 | 5.42332 | 34574 ft | 391 kts | 206° |
| 2026-05-05 12:14 | 43.98807 | 5.40959 | 34774 ft | 392 kts | 205° |
| 2026-05-05 12:14 | 43.96259 | 5.39586 | 34914 ft | 393 kts | 205° |
| 2026-05-05 12:15 | 43.91154 | 5.36827 | 34940 ft | 394 kts | 206° |
| 2026-05-05 12:15 | 43.86042 | 5.34062 | 34941 ft | 395 kts | 205° |
| 2026-05-05 12:16 | 43.80926 | 5.31296 | 34940 ft | 394 kts | 205° |
| 2026-05-05 12:16 | 43.75825 | 5.28556 | 34946 ft | 393 kts | 205° |
| 2026-05-05 12:17 | 43.70729 | 5.25819 | 34921 ft | 393 kts | 206° |
| 2026-05-05 12:17 | 43.65630 | 5.23076 | 34923 ft | 394 kts | 205° |
| 2026-05-05 12:18 | 43.60521 | 5.20345 | 34925 ft | 394 kts | 205° |
| 2026-05-05 12:18 | 43.55408 | 5.17616 | 34924 ft | 394 kts | 205° |
| 2026-05-05 12:19 | 43.50323 | 5.14912 | 34916 ft | 394 kts | 205° |
| 2026-05-05 12:19 | 43.45201 | 5.12189 | 34930 ft | 395 kts | 205° |
| 2026-05-05 12:20 | 43.40076 | 5.09463 | 34934 ft | 394 kts | 207° |
| 2026-05-05 12:20 | 43.35409 | 5.05656 | 34935 ft | 389 kts | 217° |
| 2026-05-05 12:21 | 43.30948 | 5.01428 | 34913 ft | 390 kts | 217° |
| 2026-05-05 12:21 | 43.26470 | 4.97225 | 34918 ft | 390 kts | 217° |
| 2026-05-05 12:22 | 43.21985 | 4.93019 | 34953 ft | 390 kts | 217° |
| 2026-05-05 12:22 | 43.17508 | 4.88816 | 34952 ft | 390 kts | 217° |
| 2026-05-05 12:23 | 43.13033 | 4.84620 | 34950 ft | 390 kts | 217° |
| 2026-05-05 12:23 | 43.08556 | 4.80435 | 34932 ft | 389 kts | 217° |
| 2026-05-05 12:24 | 43.04788 | 4.77058 | 34935 ft | 391 kts | 212° |
| 2026-05-05 12:24 | 43.00031 | 4.73452 | 34944 ft | 391 kts | 212° |
| 2026-05-05 12:25 | 42.95279 | 4.69843 | 34942 ft | 391 kts | 212° |
| 2026-05-05 12:25 | 42.90526 | 4.66245 | 34938 ft | 390 kts | 212° |
| 2026-05-05 12:26 | 42.85775 | 4.62653 | 34948 ft | 390 kts | 212° |
| 2026-05-05 12:26 | 42.81029 | 4.59076 | 34948 ft | 390 kts | 212° |
| 2026-05-05 12:27 | 42.76279 | 4.55504 | 34980 ft | 389 kts | 212° |
| 2026-05-05 12:27 | 42.71570 | 4.51970 | 34972 ft | 389 kts | 212° |
| 2026-05-05 12:28 | 42.66830 | 4.48415 | 34969 ft | 389 kts | 212° |
| 2026-05-05 12:28 | 42.62093 | 4.44864 | 34964 ft | 389 kts | 212° |
| 2026-05-05 12:29 | 42.57362 | 4.41325 | 34957 ft | 388 kts | 212° |
| 2026-05-05 12:29 | 42.52627 | 4.37790 | 34925 ft | 388 kts | 212° |
| 2026-05-05 12:30 | 42.47898 | 4.34263 | 34941 ft | 388 kts | 212° |
| 2026-05-05 12:30 | 42.43173 | 4.30753 | 34950 ft | 387 kts | 212° |
| 2026-05-05 12:31 | 42.38450 | 4.27253 | 34954 ft | 387 kts | 212° |
| 2026-05-05 12:31 | 42.33729 | 4.23754 | 34960 ft | 386 kts | 212° |
| 2026-05-05 12:32 | 42.29019 | 4.20268 | 34935 ft | 386 kts | 213° |
| 2026-05-05 12:32 | 42.24320 | 4.16792 | 34962 ft | 385 kts | 213° |
| 2026-05-05 12:33 | 42.19621 | 4.13323 | 34963 ft | 385 kts | 213° |
| 2026-05-05 12:33 | 42.14955 | 4.09892 | 34953 ft | 384 kts | 213° |
| 2026-05-05 12:34 | 42.10256 | 4.06439 | 34932 ft | 384 kts | 213° |
| 2026-05-05 12:34 | 42.05572 | 4.02999 | 34941 ft | 383 kts | 213° |
| 2026-05-05 12:35 | 42.00894 | 3.99570 | 34945 ft | 383 kts | 213° |
| 2026-05-05 12:35 | 41.96215 | 3.96161 | 34943 ft | 382 kts | 213° |
| 2026-05-05 12:36 | 41.91535 | 3.92766 | 34910 ft | 382 kts | 212° |
| 2026-05-05 12:36 | 41.86795 | 3.89516 | 34923 ft | 382 kts | 211° |
| 2026-05-05 12:37 | 41.82028 | 3.86356 | 34936 ft | 382 kts | 211° |
| 2026-05-05 12:37 | 41.77299 | 3.83214 | 34948 ft | 382 kts | 211° |
| 2026-05-05 12:38 | 41.72551 | 3.80030 | 34963 ft | 382 kts | 211° |
| 2026-05-05 12:38 | 41.67802 | 3.76854 | 34930 ft | 382 kts | 211° |
| 2026-05-05 12:39 | 41.63048 | 3.73684 | 34933 ft | 382 kts | 211° |
| 2026-05-05 12:39 | 41.58296 | 3.70516 | 34936 ft | 382 kts | 211° |
| 2026-05-05 12:40 | 41.53545 | 3.67346 | 34936 ft | 382 kts | 211° |
| 2026-05-05 12:40 | 41.48792 | 3.64186 | 34912 ft | 382 kts | 211° |
| 2026-05-05 12:41 | 41.44033 | 3.61027 | 34919 ft | 382 kts | 211° |
| 2026-05-05 12:41 | 41.39280 | 3.57877 | 34928 ft | 382 kts | 211° |
| 2026-05-05 12:42 | 41.34521 | 3.54735 | 34933 ft | 382 kts | 211° |
| 2026-05-05 12:42 | 41.29762 | 3.51596 | 34934 ft | 382 kts | 211° |
| 2026-05-05 12:43 | 41.25034 | 3.48483 | 34916 ft | 382 kts | 211° |
| 2026-05-05 12:43 | 41.20279 | 3.45343 | 34923 ft | 382 kts | 211° |
| 2026-05-05 12:44 | 41.15147 | 3.43252 | 34931 ft | 392 kts | 198° |
| 2026-05-05 12:44 | 41.09800 | 3.41849 | 34933 ft | 392 kts | 198° |
| 2026-05-05 12:45 | 41.04454 | 3.40439 | 34916 ft | 392 kts | 198° |
| 2026-05-05 12:45 | 40.99101 | 3.39024 | 34921 ft | 392 kts | 198° |
| 2026-05-05 12:46 | 40.93743 | 3.37619 | 34928 ft | 392 kts | 198° |
| 2026-05-05 12:46 | 40.88387 | 3.36214 | 34930 ft | 392 kts | 198° |
| 2026-05-05 12:47 | 40.83032 | 3.34811 | 34908 ft | 392 kts | 198° |
| 2026-05-05 12:47 | 40.77675 | 3.33400 | 34916 ft | 393 kts | 198° |
| 2026-05-05 12:48 | 40.72312 | 3.31995 | 34925 ft | 393 kts | 198° |
| 2026-05-05 12:48 | 40.66948 | 3.30598 | 34928 ft | 393 kts | 198° |
| 2026-05-05 12:49 | 40.61574 | 3.29210 | 34927 ft | 393 kts | 198° |
| 2026-05-05 12:49 | 40.56205 | 3.27810 | 34929 ft | 393 kts | 198° |
| 2026-05-05 12:50 | 40.50870 | 3.26415 | 34931 ft | 393 kts | 198° |
| 2026-05-05 12:50 | 40.45499 | 3.25018 | 34932 ft | 393 kts | 198° |
| 2026-05-05 12:51 | 40.40122 | 3.23641 | 34895 ft | 394 kts | 197° |
| 2026-05-05 12:51 | 40.34742 | 3.22251 | 34903 ft | 394 kts | 198° |
| 2026-05-05 12:52 | 40.29352 | 3.20858 | 34913 ft | 395 kts | 198° |
| 2026-05-05 12:52 | 40.23964 | 3.19462 | 34918 ft | 395 kts | 198° |
| 2026-05-05 12:53 | 40.18570 | 3.18074 | 34904 ft | 396 kts | 197° |
| 2026-05-05 12:53 | 40.13160 | 3.16682 | 34910 ft | 396 kts | 197° |
| 2026-05-05 12:54 | 40.05035 | 3.14606 | 34919 ft | 396 kts | 197° |
| 2026-05-05 12:55 | 39.99662 | 3.13227 | 34922 ft | 396 kts | 197° |
| 2026-05-05 12:55 | 39.94259 | 3.11805 | 34906 ft | 394 kts | 201° |
| 2026-05-05 12:56 | 39.89338 | 3.08993 | 34540 ft | 384 kts | 213° |
| 2026-05-05 12:56 | 39.87002 | 3.07294 | 33820 ft | 385 kts | 212° |
| 2026-05-05 12:56 | 39.84659 | 3.05584 | 33032 ft | 387 kts | 212° |
| 2026-05-05 12:56 | 39.82306 | 3.03867 | 32252 ft | 389 kts | 213° |
| 2026-05-05 12:57 | 39.79937 | 3.02140 | 31441 ft | 392 kts | 213° |
| 2026-05-05 12:57 | 39.77549 | 3.00400 | 30635 ft | 394 kts | 213° |
| 2026-05-05 12:57 | 39.75143 | 2.98650 | 29707 ft | 398 kts | 213° |
| 2026-05-05 12:57 | 39.72727 | 2.96896 | 28983 ft | 397 kts | 213° |
| 2026-05-05 12:58 | 39.70324 | 2.95154 | 28335 ft | 394 kts | 213° |
| 2026-05-05 12:58 | 39.67943 | 2.93432 | 27695 ft | 390 kts | 213° |
| 2026-05-05 12:58 | 39.65579 | 2.91723 | 27081 ft | 387 kts | 213° |
| 2026-05-05 12:58 | 39.63236 | 2.90034 | 26484 ft | 384 kts | 213° |
| 2026-05-05 12:59 | 39.60910 | 2.88361 | 25893 ft | 381 kts | 213° |
| 2026-05-05 12:59 | 39.58603 | 2.86699 | 25299 ft | 378 kts | 213° |
| 2026-05-05 12:59 | 39.56317 | 2.85051 | 24749 ft | 375 kts | 213° |
| 2026-05-05 13:00 | 39.51789 | 2.81786 | 23611 ft | 370 kts | 213° |
| 2026-05-05 13:00 | 39.49548 | 2.80169 | 22969 ft | 367 kts | 213° |
| 2026-05-05 13:01 | 39.43170 | 2.74958 | 21049 ft | 356 kts | 225° |
| 2026-05-05 13:01 | 39.41496 | 2.72633 | 20435 ft | 352 kts | 233° |
| 2026-05-05 13:01 | 39.39962 | 2.70169 | 19814 ft | 351 kts | 232° |
| 2026-05-05 13:01 | 39.38428 | 2.67724 | 19215 ft | 350 kts | 232° |
| 2026-05-05 13:02 | 39.36893 | 2.65293 | 18664 ft | 348 kts | 232° |
| 2026-05-05 13:02 | 39.35364 | 2.62878 | 18096 ft | 347 kts | 232° |
| 2026-05-05 13:02 | 39.33842 | 2.60471 | 17484 ft | 345 kts | 232° |
| 2026-05-05 13:02 | 39.32333 | 2.58081 | 16890 ft | 343 kts | 232° |
| 2026-05-05 13:03 | 39.30827 | 2.55700 | 16318 ft | 341 kts | 232° |
| 2026-05-05 13:03 | 39.29329 | 2.53331 | 15762 ft | 340 kts | 232° |
| 2026-05-05 13:03 | 39.27839 | 2.50977 | 15227 ft | 338 kts | 232° |
| 2026-05-05 13:03 | 39.26354 | 2.48633 | 14704 ft | 336 kts | 232° |
| 2026-05-05 13:04 | 39.24879 | 2.46300 | 14193 ft | 335 kts | 231° |
| 2026-05-05 13:04 | 39.23410 | 2.43978 | 13692 ft | 333 kts | 231° |
| 2026-05-05 13:04 | 39.21944 | 2.41665 | 13135 ft | 332 kts | 231° |
| 2026-05-05 13:04 | 39.20504 | 2.39400 | 12587 ft | 330 kts | 231° |
| 2026-05-05 13:05 | 39.19049 | 2.37110 | 12040 ft | 329 kts | 231° |
| 2026-05-05 13:05 | 39.17601 | 2.34837 | 11542 ft | 327 kts | 231° |
| 2026-05-05 13:05 | 39.16163 | 2.32578 | 11042 ft | 325 kts | 231° |
| 2026-05-05 13:05 | 39.14732 | 2.30329 | 10525 ft | 324 kts | 231° |
| 2026-05-05 13:06 | 39.13305 | 2.28090 | 10069 ft | 322 kts | 231° |
| 2026-05-05 13:06 | 39.11913 | 2.25913 | 9928 ft | 304 kts | 231° |
| 2026-05-05 13:06 | 39.10627 | 2.23901 | 9919 ft | 280 kts | 231° |
| 2026-05-05 13:06 | 39.09418 | 2.22006 | 9535 ft | 270 kts | 232° |
| 2026-05-05 13:07 | 39.08490 | 2.19940 | 9050 ft | 267 kts | 252° |
| 2026-05-05 13:07 | 39.08129 | 2.17600 | 8667 ft | 266 kts | 259° |
| 2026-05-05 13:07 | 39.07836 | 2.15248 | 8272 ft | 265 kts | 259° |
| 2026-05-05 13:07 | 39.07545 | 2.12911 | 7886 ft | 264 kts | 259° |
| 2026-05-05 13:08 | 39.07255 | 2.10582 | 7516 ft | 263 kts | 259° |
| 2026-05-05 13:08 | 39.06971 | 2.08298 | 7157 ft | 261 kts | 259° |
| 2026-05-05 13:08 | 39.06685 | 2.06016 | 6942 ft | 253 kts | 259° |
| 2026-05-05 13:08 | 39.06412 | 2.03843 | 6940 ft | 239 kts | 259° |
| 2026-05-05 13:09 | 39.06155 | 2.01785 | 6829 ft | 229 kts | 259° |
| 2026-05-05 13:09 | 39.05904 | 1.99774 | 6556 ft | 227 kts | 259° |
| 2026-05-05 13:09 | 39.05654 | 1.97775 | 6246 ft | 226 kts | 259° |
| 2026-05-05 13:09 | 39.05404 | 1.95780 | 5911 ft | 226 kts | 259° |
| 2026-05-05 13:10 | 39.05154 | 1.93792 | 5595 ft | 225 kts | 259° |
| 2026-05-05 13:10 | 39.04904 | 1.91810 | 5274 ft | 225 kts | 260° |
| 2026-05-05 13:10 | 39.04654 | 1.89834 | 5033 ft | 221 kts | 260° |
| 2026-05-05 13:10 | 39.04408 | 1.87875 | 5000 ft | 222 kts | 261° |
| 2026-05-05 13:11 | 39.04161 | 1.85905 | 5000 ft | 223 kts | 261° |
| 2026-05-05 13:11 | 39.03913 | 1.83936 | 5000 ft | 223 kts | 261° |
| 2026-05-05 13:11 | 39.03663 | 1.81971 | 4998 ft | 223 kts | 260° |
| 2026-05-05 13:11 | 39.03412 | 1.79997 | 4853 ft | 224 kts | 260° |
| 2026-05-05 13:12 | 39.03162 | 1.78029 | 4654 ft | 222 kts | 261° |
| 2026-05-05 13:12 | 39.02903 | 1.76073 | 4448 ft | 222 kts | 257° |
| 2026-05-05 13:12 | 39.02406 | 1.74192 | 4242 ft | 223 kts | 246° |
| 2026-05-05 13:12 | 39.01722 | 1.72403 | 4074 ft | 223 kts | 243° |
| 2026-05-05 13:13 | 39.00998 | 1.70634 | 3985 ft | 223 kts | 243° |
| 2026-05-05 13:13 | 39.00271 | 1.68865 | 3989 ft | 224 kts | 243° |
| 2026-05-05 13:13 | 38.99791 | 1.67694 | 3985 ft | 224 kts | 244° |
| 2026-05-05 13:13 | 38.99070 | 1.65936 | 4021 ft | 216 kts | 243° |
| 2026-05-05 13:14 | 38.98396 | 1.64294 | 3983 ft | 199 kts | 244° |
| 2026-05-05 13:14 | 38.97581 | 1.62306 | 3937 ft | 184 kts | 243° |
| 2026-05-05 13:14 | 38.96989 | 1.60863 | 3773 ft | 182 kts | 244° |
| 2026-05-05 13:14 | 38.96590 | 1.59891 | 3607 ft | 182 kts | 244° |
| 2026-05-05 13:15 | 38.95810 | 1.57992 | 3307 ft | 181 kts | 244° |
| 2026-05-05 13:15 | 38.95412 | 1.57023 | 3146 ft | 181 kts | 244° |
| 2026-05-05 13:15 | 38.94823 | 1.55590 | 2904 ft | 181 kts | 244° |
| 2026-05-05 13:15 | 38.94234 | 1.54160 | 2665 ft | 181 kts | 244° |
| 2026-05-05 13:16 | 38.93647 | 1.52733 | 2420 ft | 180 kts | 244° |
| 2026-05-05 13:16 | 38.93071 | 1.51335 | 2191 ft | 174 kts | 245° |
| 2026-05-05 13:16 | 38.92512 | 1.49978 | 1953 ft | 169 kts | 245° |
| 2026-05-05 13:16 | 38.91980 | 1.48687 | 1753 ft | 160 kts | 245° |
| 2026-05-05 13:17 | 38.91477 | 1.47468 | 1534 ft | 150 kts | 245° |
| 2026-05-05 13:17 | 38.90995 | 1.46301 | 1321 ft | 147 kts | 244° |
| 2026-05-05 13:17 | 38.90523 | 1.45154 | 1125 ft | 145 kts | 244° |
| 2026-05-05 13:17 | 38.90053 | 1.44014 | 952 ft | 144 kts | 244° |
| 2026-05-05 13:18 | 38.89588 | 1.42887 | 753 ft | 142 kts | 243° |
| 2026-05-05 13:18 | 38.89132 | 1.41783 | 587 ft | 139 kts | 243° |
| 2026-05-05 13:18 | 38.88683 | 1.40687 | 396 ft | 139 kts | 241° |
| 2026-05-05 13:18 | 38.88230 | 1.39598 | 203 ft | 138 kts | 240° |
| 2026-05-05 13:19 | 38.87782 | 1.38513 | 28 ft | 137 kts | 242° |
| 2026-05-05 13:19 | 38.87390 | 1.37567 | 10 ft | 93 kts | 242° |
| 2026-05-05 13:19 | 38.87173 | 1.37042 | 10 ft | 42 kts | 242° |
| 2026-05-05 13:19 | 38.87105 | 1.36789 | 9 ft | 26 kts | 266° |
| 2026-05-05 13:20 | 38.87103 | 1.36622 | 8 ft | 12 kts | 271° |
| 2026-05-05 13:20 | 38.87141 | 1.36555 | 8 ft | 8 kts | 9° |
| 2026-05-05 13:20 | 38.87197 | 1.36646 | 9 ft | 17 kts | 61° |
| 2026-05-05 13:20 | 38.87249 | 1.36777 | 9 ft | 16 kts | 63° |
| 2026-05-05 13:21 | 38.87298 | 1.36897 | 9 ft | 15 kts | 62° |
| 2026-05-05 13:21 | 38.87347 | 1.37015 | 9 ft | 17 kts | 62° |
| 2026-05-05 13:21 | 38.87395 | 1.37129 | 9 ft | 11 kts | 57° |
| 2026-05-05 13:21 | 38.87437 | 1.37131 | 9 ft | 6 kts | 334° |
| 2026-05-05 13:22 | 38.87474 | 1.37106 | 9 ft | 5 kts | 332° |
| 2026-05-05 13:22 | 38.87492 | 1.37094 | 8 ft | 1 kts | 332° |